This is the latest recevied weather packets stored in our database for station/object K8ZAS. If no packets are shown the sender has not sent any weather packets the latest 10 day(s).
| Time | Temp. | Humidity | Pressure | Rain* | Wind** | Luminosity | Snow |
|---|---|---|---|---|---|---|---|
| 1777890927 | 4.44° C | 65% | 1008.8 hPa | 0 mm | - | 0 W/m² | - |
| 1777889727 | 5° C | 63% | 1008.9 hPa | 0 mm | - | 0 W/m² | - |
| 1777886727 | 4.44° C | 64% | 1008.7 hPa | 0 mm | - | 0 W/m² | - |
| 1777886148 | 4.44° C | 65% | 1008.7 hPa | 0 mm | - | 0 W/m² | - |
| 1777885528 | 5° C | 65% | 1008.8 hPa | 0 mm | - | 0 W/m² | - |
| 1777877119 | 6.67° C | 58% | 1009.4 hPa | 0 mm | - | 0 W/m² | - |
| 1777876537 | 6.67° C | 57% | 1009.4 hPa | 0 mm | - | 0 W/m² | - |
| 1777869918 | 11.11° C | 47% | 1009.5 hPa | 0 mm | - | 0 W/m² | - |
| 1777869318 | 11.67° C | 48% | 1009.5 hPa | 0 mm | - | 0 W/m² | - |
| 1777867519 | 13.33° C | 39% | 1009.2 hPa | 0 mm | - | 0 W/m² | - |
| 1777866320 | 14.44° C | 36% | 1009 hPa | 0 mm | - | 0 W/m² | - |
| 1777862138 | 17.78° C | 28% | 1008.1 hPa | 0 mm | - | 1 W/m² | - |
| 1777859719 | 20.56° C | 23% | 1007.6 hPa | 0 mm | - | 21 W/m² | - |
| 1777853718 | 22.78° C | 17% | 1007.6 hPa | 0 mm | - | 178 W/m² | - |
| 1777852518 | 23.33° C | 18% | 1007.6 hPa | 0 mm | - | 365 W/m² | - |
| 1777850118 | 23.33° C | 17% | 1007.8 hPa | 0 mm | - | 511 W/m² | - |
| 1777847120 | 22.22° C | 18% | 1008.3 hPa | 0 mm | - | 142 W/m² | - |
| 1777841118 | 22.78° C | 18% | 1009.9 hPa | 0 mm | - | 971 W/m² | - |
| 1777838119 | 22.78° C | 19% | 1010.8 hPa | 0 mm | - | 969 W/m² | - |
| 1777831519 | 20° C | 26% | 1013 hPa | 0 mm | - | 724 W/m² | - |
| 1777830919 | 19.44° C | 27% | 1013.2 hPa | 0 mm | - | 945 W/m² | - |
| 1777829719 | 18.89° C | 27% | 1013.6 hPa | 0 mm | - | 695 W/m² | - |
| 1777827919 | 18.33° C | 32% | 1014.1 hPa | 0 mm | - | 552 W/m² | - |
| 1777827317 | 18.33° C | 33% | 1014.3 hPa | 0 mm | - | 867 W/m² | - |
| 1777826120 | 17.22° C | 35% | 1014.3 hPa | 0 mm | - | 829 W/m² | - |
* Rain latest hour (hover to see other rain measurements)
** Current wind speed in m/s (hover to see current wind gust speed)